Time;durP1;ratioP1;P1;durP2;ratioP2;P2;SDS_P1;SDS_P2;PMS_P1;PMS_P2;Temp;Humidity;BMP_temperature;BMP_pressure;BME280_temperature;BME280_humidity;BME280_pressure;Samples;Min_cycle;Max_cycle;Signal;HPM_P1;HPM_P2
2021/06/18 00:01:21;;;;;;;11.93;5.30;;;;;;;24.40;59.77;101046.31;5039332;28;20036;-71
2021/06/18 00:03:48;;;;;;;9.13;4.90;;;;;;;24.42;59.85;101046.88;5035022;28;20052;-70
2021/06/18 00:06:14;;;;;;;9.15;4.90;;;;;;;24.36;59.73;101044.41;5036528;28;20544;-70
2021/06/18 00:08:41;;;;;;;6.88;4.70;;;;;;;24.35;59.48;101048.09;5040963;28;20071;-70
2021/06/18 00:11:06;;;;;;;9.52;4.93;;;;;;;24.28;59.50;101042.97;5038005;28;20357;-71
2021/06/18 00:13:32;;;;;;;12.25;5.50;;;;;;;24.24;59.53;101049.75;5042171;28;20037;-70
2021/06/18 00:15:57;;;;;;;8.93;5.00;;;;;;;24.20;59.77;101038.84;5039691;28;20041;-70
2021/06/18 00:18:23;;;;;;;12.68;5.07;;;;;;;24.23;59.79;101033.06;5038634;28;20565;-70
2021/06/18 00:20:48;;;;;;;10.23;4.90;;;;;;;24.17;59.92;101028.75;5045646;28;20625;-70
2021/06/18 00:23:13;;;;;;;13.73;4.68;;;;;;;24.14;59.56;101031.88;5049987;28;20521;-70
2021/06/18 00:25:39;;;;;;;9.93;5.10;;;;;;;24.13;59.78;101032.09;5036586;28;20044;-71
2021/06/18 00:28:05;;;;;;;11.85;4.35;;;;;;;24.07;59.98;101025.94;5037456;28;20116;-71
2021/06/18 00:30:30;;;;;;;8.75;4.65;;;;;;;24.08;60.02;101024.91;5039328;28;20400;-70
2021/06/18 00:32:55;;;;;;;8.88;4.57;;;;;;;24.06;60.15;101021.69;5039428;28;20033;-70
2021/06/18 00:35:21;;;;;;;11.73;5.05;;;;;;;24.05;60.33;101022.72;5037885;28;20477;-71
2021/06/18 00:37:46;;;;;;;10.02;5.30;;;;;;;24.04;60.26;101015.84;5051857;28;20060;-70
2021/06/18 00:40:12;;;;;;;12.18;5.60;;;;;;;24.00;60.16;101012.06;5021639;28;20068;-70
2021/06/18 00:42:38;;;;;;;8.80;4.90;;;;;;;23.93;60.49;101006.13;5049957;28;20481;-70
2021/06/18 00:45:04;;;;;;;11.02;4.85;;;;;;;23.92;60.52;101007.94;5048401;28;20037;-70
2021/06/18 00:47:30;;;;;;;8.95;4.38;;;;;;;23.92;60.49;101007.94;5046653;28;20729;-70
2021/06/18 00:49:55;;;;;;;8.88;4.68;;;;;;;23.89;60.21;101006.59;5033103;28;20045;-70
2021/06/18 00:52:22;;;;;;;8.60;4.55;;;;;;;23.86;60.17;101004.41;5051625;28;20527;-71
2021/06/18 00:54:48;;;;;;;6.40;4.28;;;;;;;23.86;60.05;101001.75;5046435;28;20072;-70
2021/06/18 00:57:15;;;;;;;11.52;5.60;;;;;;;23.86;60.27;100995.66;5052814;28;20040;-70
2021/06/18 00:59:40;;;;;;;9.57;4.95;;;;;;;23.85;60.51;100986.94;5038527;28;20080;-71
2021/06/18 01:02:06;;;;;;;8.63;5.57;;;;;;;23.82;60.24;100979.47;5050910;28;20106;-70
2021/06/18 01:04:33;;;;;;;6.63;4.25;;;;;;;23.77;60.25;100976.72;5049293;28;20037;-70
2021/06/18 01:07:05;;;;;;;7.18;4.78;;;;;;;23.75;60.23;100983.28;5050500;28;20028;-70
2021/06/18 01:10:03;;;;;;;11.90;6.73;;;;;;;23.62;60.04;100973.78;5033979;28;20119;-70
2021/06/18 01:12:35;;;;;;;10.75;4.50;;;;;;;23.61;60.43;100967.72;5043801;28;20375;-71
2021/06/18 01:15:21;;;;;;;13.52;5.95;;;;;;;23.51;60.30;100968.34;5044407;28;20036;-71
2021/06/18 01:18:01;;;;;;;13.38;5.63;;;;;;;23.42;60.65;100975.06;5042762;28;20044;-70
2021/06/18 01:21:01;;;;;;;17.15;6.72;;;;;;;23.39;60.94;100982.66;5051058;28;20047;-70
2021/06/18 01:23:29;;;;;;;9.52;5.25;;;;;;;23.32;61.04;100972.22;5034186;28;20044;-70
2021/06/18 01:26:06;;;;;;;8.95;5.32;;;;;;;23.33;61.35;100979.13;5048305;28;20117;-70
2021/06/18 01:28:35;;;;;;;8.73;5.10;;;;;;;23.29;61.42;100991.22;5033244;28;20484;-70
2021/06/18 01:31:02;;;;;;;8.23;4.60;;;;;;;23.33;61.18;101001.06;5052033;28;20033;-70
2021/06/18 01:33:29;;;;;;;8.75;5.45;;;;;;;23.37;60.90;101006.69;5046512;28;20208;-70
2021/06/18 01:35:59;;;;;;;9.65;5.90;;;;;;;23.41;61.16;100997.25;5050546;28;20378;-70
2021/06/18 01:38:27;;;;;;;11.00;5.80;;;;;;;23.42;60.92;100996.22;5051576;28;20225;-70
2021/06/18 01:40:58;;;;;;;8.20;5.40;;;;;;;23.37;61.45;100995.31;5052996;28;20041;-70
2021/06/18 01:43:27;;;;;;;7.85;5.28;;;;;;;23.32;61.75;100991.53;5046871;28;20067;-70
2021/06/18 01:45:55;;;;;;;9.82;3.92;;;;;;;23.33;61.53;100989.69;5048365;28;20094;-70
2021/06/18 01:48:22;;;;;;;9.85;5.00;;;;;;;23.32;61.54;100986.25;5051007;28;20028;-71
2021/06/18 01:50:54;;;;;;;9.45;4.95;;;;;;;23.32;61.47;100982.81;5029180;28;20049;-70
2021/06/18 01:53:21;;;;;;;9.57;5.25;;;;;;;23.20;61.54;100980.19;5044222;28;20025;-70
2021/06/18 01:55:48;;;;;;;8.15;4.78;;;;;;;23.20;62.00;100971.47;5040624;28;20227;-70
2021/06/18 01:58:16;;;;;;;9.73;4.97;;;;;;;23.11;61.96;100957.81;5048354;28;20039;-70
2021/06/18 02:00:45;;;;;;;7.72;4.88;;;;;;;23.09;62.02;100968.63;5040009;28;20055;-70
2021/06/18 02:03:15;;;;;;;7.40;4.65;;;;;;;23.02;62.31;100975.03;5043870;28;20039;-70
2021/06/18 02:05:42;;;;;;;7.07;4.03;;;;;;;23.00;62.14;100971.84;5045759;28;20813;-71
2021/06/18 02:08:09;;;;;;;12.20;5.22;;;;;;;23.02;62.42;100959.19;5030627;28;20444;-70
2021/06/18 02:10:36;;;;;;;8.25;4.57;;;;;;;23.00;62.45;100953.31;5047666;28;20508;-70
2021/06/18 02:13:04;;;;;;;11.90;5.20;;;;;;;22.99;62.47;100951.75;5040894;28;20115;-70
2021/06/18 02:15:32;;;;;;;9.18;4.97;;;;;;;22.94;62.45;100965.63;5043434;28;20123;-70
2021/06/18 02:17:57;;;;;;;9.30;4.00;;;;;;;22.85;62.63;100952.00;5039261;28;20068;-71
2021/06/18 02:20:23;;;;;;;7.00;4.00;;;;;;;22.87;62.61;100947.28;5045973;28;20485;-70
2021/06/18 02:22:50;;;;;;;9.90;5.28;;;;;;;22.89;62.30;100953.13;5041512;28;20644;-70
2021/06/18 02:25:16;;;;;;;9.50;4.40;;;;;;;22.83;62.72;100962.00;5047368;28;20307;-71
2021/06/18 02:27:42;;;;;;;8.77;4.88;;;;;;;22.84;62.51;100960.97;5050337;28;20140;-70
2021/06/18 02:30:10;;;;;;;9.50;4.53;;;;;;;22.82;62.60;100959.59;5037175;28;20091;-71
2021/06/18 02:32:37;;;;;;;7.00;4.20;;;;;;;22.81;62.62;100964.09;5047331;28;20074;-70
2021/06/18 02:35:03;;;;;;;6.82;4.43;;;;;;;22.83;62.48;100967.28;5041384;28;20037;-70
2021/06/18 02:37:29;;;;;;;10.38;4.47;;;;;;;22.87;62.49;100963.16;5039454;28;20037;-71
2021/06/18 02:39:54;;;;;;;9.52;4.15;;;;;;;22.87;62.40;100971.06;5026224;28;20035;-71
2021/06/18 02:42:19;;;;;;;7.78;4.32;;;;;;;22.88;62.51;100971.88;5030155;28;20140;-70
2021/06/18 02:44:45;;;;;;;10.93;4.30;;;;;;;22.88;62.47;100979.81;5048210;28;20043;-70
2021/06/18 02:47:17;;;;;;;11.75;4.00;;;;;;;22.88;62.70;100977.16;5045790;28;20067;-70
2021/06/18 02:49:48;;;;;;;4.13;3.70;;;;;;;22.86;62.97;100971.31;5043003;28;20119;-70
2021/06/18 02:52:34;;;;;;;8.52;4.38;;;;;;;22.82;63.08;100978.91;5041293;28;20091;-70
2021/06/18 02:55:14;;;;;;;8.15;4.28;;;;;;;22.76;62.99;100977.19;5045561;28;20551;-70
2021/06/18 02:58:00;;;;;;;7.95;3.70;;;;;;;22.76;63.03;100976.41;5031829;28;20819;-71
2021/06/18 03:00:27;;;;;;;8.93;4.68;;;;;;;22.74;63.24;100969.50;5040073;28;20028;-70
2021/06/18 03:02:59;;;;;;;8.10;4.30;;;;;;;22.70;63.71;100972.84;5045064;28;20025;-70
2021/06/18 03:05:26;;;;;;;8.50;4.55;;;;;;;22.64;64.05;100961.34;5044750;28;20032;-70
2021/06/18 03:08:04;;;;;;;9.63;3.80;;;;;;;22.62;64.08;100957.31;5043530;28;20063;-71
2021/06/18 03:10:39;;;;;;;5.10;3.80;;;;;;;22.60;64.00;100968.13;5034121;28;20036;-71
2021/06/18 03:13:12;;;;;;;6.43;4.22;;;;;;;22.52;64.19;100960.56;5042508;28;20033;-70
2021/06/18 03:15:42;;;;;;;6.97;4.00;;;;;;;22.48;64.32;100965.50;5034362;28;20071;-70
2021/06/18 03:18:08;;;;;;;9.25;5.22;;;;;;;22.46;63.73;100970.22;5040440;28;20513;-70
2021/06/18 03:20:36;;;;;;;15.10;4.53;;;;;;;22.42;64.17;100970.91;5029280;28;20029;-71
2021/06/18 03:23:05;;;;;;;7.15;5.15;;;;;;;22.41;64.35;100975.38;5044472;28;20115;-70
2021/06/18 03:25:34;;;;;;;6.65;3.80;;;;;;;22.42;64.41;100977.00;5058322;28;20037;-70
2021/06/18 03:28:00;;;;;;;6.10;3.85;;;;;;;22.46;64.21;100979.97;5038689;28;20083;-70
2021/06/18 03:30:26;;;;;;;7.60;4.30;;;;;;;22.46;64.62;100977.34;5045615;28;20033;-70
2021/06/18 03:32:53;;;;;;;7.65;4.28;;;;;;;22.47;64.66;100969.19;5046766;28;20041;-70
2021/06/18 03:35:20;;;;;;;5.70;4.20;;;;;;;22.48;64.58;100970.78;5045099;28;20530;-70
2021/06/18 03:37:47;;;;;;;5.78;4.13;;;;;;;22.50;64.56;100979.28;5038462;28;20037;-70
2021/06/18 03:40:13;;;;;;;5.28;4.15;;;;;;;22.51;64.63;100978.25;5043905;28;20064;-70
2021/06/18 03:42:39;;;;;;;8.52;4.22;;;;;;;22.51;64.49;100983.53;5047396;28;20139;-70
2021/06/18 03:45:07;;;;;;;8.85;4.00;;;;;;;22.53;64.68;100983.31;5046053;28;20401;-70
2021/06/18 03:47:33;;;;;;;7.80;4.72;;;;;;;22.55;64.78;100984.69;5037383;28;20141;-70
2021/06/18 03:50:00;;;;;;;15.02;4.00;;;;;;;22.56;64.73;100985.47;5029421;28;20540;-70
2021/06/18 03:52:26;;;;;;;9.32;5.40;;;;;;;22.52;64.95;100977.22;5048655;28;20025;-70
2021/06/18 03:54:51;;;;;;;11.00;4.30;;;;;;;22.46;65.70;100970.22;5021450;28;20106;-70
2021/06/18 03:57:19;;;;;;;6.68;5.15;;;;;;;22.44;65.68;100968.84;5028104;28;20465;-70
2021/06/18 03:59:45;;;;;;;6.68;4.65;;;;;;;22.37;65.71;100968.16;5037970;28;20037;-70
2021/06/18 04:02:14;;;;;;;14.05;4.78;;;;;;;22.29;65.99;100980.66;5049910;28;20040;-71
2021/06/18 04:04:41;;;;;;;14.48;5.40;;;;;;;22.29;65.73;100967.47;5041202;28;20044;-70
2021/06/18 04:07:07;;;;;;;6.70;4.53;;;;;;;22.31;66.03;100968.03;5037759;28;20785;-70
2021/06/18 04:09:35;;;;;;;6.43;4.13;;;;;;;22.37;65.54;100968.16;5035187;28;20037;-70
2021/06/18 04:12:01;;;;;;;7.07;4.20;;;;;;;22.43;65.86;100975.94;5041552;28;20402;-71
2021/06/18 04:14:28;;;;;;;8.88;5.20;;;;;;;22.49;65.72;100971.56;5033462;28;20035;-71
2021/06/18 04:16:53;;;;;;;9.30;4.47;;;;;;;22.52;65.43;100969.28;5042954;28;20043;-70
2021/06/18 04:19:19;;;;;;;11.23;4.13;;;;;;;22.54;65.14;100972.50;5038711;28;20037;-71
2021/06/18 04:21:46;;;;;;;6.13;4.38;;;;;;;22.61;65.57;100968.94;5039332;28;20041;-71
2021/06/18 04:24:15;;;;;;;5.88;4.05;;;;;;;22.65;65.45;100968.25;5027405;28;20162;-70
2021/06/18 04:26:41;;;;;;;9.57;4.53;;;;;;;22.71;65.39;100966.50;5041244;28;20124;-70
2021/06/18 04:29:07;;;;;;;9.07;3.95;;;;;;;22.75;65.67;100962.34;5026546;28;20056;-71
2021/06/18 04:31:33;;;;;;;10.20;4.28;;;;;;;22.79;66.02;100960.06;5045577;28;20024;-70
2021/06/18 04:33:58;;;;;;;6.75;4.03;;;;;;;22.82;66.04;100960.38;5043880;28;20786;-70
2021/06/18 04:36:24;;;;;;;10.02;4.28;;;;;;;22.87;65.74;100957.84;5027702;28;20044;-71
2021/06/18 04:38:49;;;;;;;7.88;4.00;;;;;;;22.91;65.27;100959.00;5036545;28;20034;-70
2021/06/18 04:41:15;;;;;;;8.25;4.18;;;;;;;22.97;64.51;100957.25;5045458;28;20382;-70
2021/06/18 04:43:40;;;;;;;10.27;4.75;;;;;;;23.05;64.68;100962.19;5025938;28;20033;-70
2021/06/18 04:46:06;;;;;;;6.82;4.22;;;;;;;23.11;64.44;100960.44;5026671;28;20029;-71
2021/06/18 04:48:31;;;;;;;7.70;4.80;;;;;;;23.19;64.28;100954.81;5044473;28;20473;-71
2021/06/18 04:50:57;;;;;;;13.90;6.53;;;;;;;23.26;64.32;100959.94;5037038;28;20036;-71
2021/06/18 04:53:22;;;;;;;12.88;6.60;;;;;;;23.38;64.89;100986.34;5049312;28;20021;-70
2021/06/18 04:55:48;;;;;;;9.80;5.90;;;;;;;23.58;65.76;101015.81;5042798;28;20028;-70
2021/06/18 04:58:14;;;;;;;13.20;6.40;;;;;;;23.52;64.95;101006.19;5045464;28;20662;-70
2021/06/18 05:00:39;;;;;;;13.23;5.85;;;;;;;23.44;64.37;100977.47;5043968;28;20033;-70
2021/06/18 05:03:05;;;;;;;10.70;5.20;;;;;;;23.46;64.21;100991.25;5022625;28;20045;-70
2021/06/18 05:05:31;;;;;;;8.73;6.03;;;;;;;23.58;64.33;100999.13;5021783;28;20056;-71
2021/06/18 05:07:57;;;;;;;14.13;6.43;;;;;;;23.81;64.32;101004.34;5037408;28;20037;-71
2021/06/18 05:10:24;;;;;;;14.70;6.63;;;;;;;23.81;64.24;101000.88;5039444;28;20079;-71
2021/06/18 05:12:51;;;;;;;9.48;6.95;;;;;;;23.84;63.85;100998.56;5028224;28;20130;-71
2021/06/18 05:15:17;;;;;;;15.02;6.85;;;;;;;23.95;63.94;101002.19;5045426;28;20401;-71
2021/06/18 05:17:43;;;;;;;14.02;7.10;;;;;;;24.04;63.60;100992.78;5041453;28;20451;-71
2021/06/18 05:20:09;;;;;;;12.95;6.32;;;;;;;24.17;62.70;100993.53;5043185;28;20061;-71
2021/06/18 05:22:34;;;;;;;12.25;6.82;;;;;;;24.26;62.27;100995.53;5044159;28;20036;-71
2021/06/18 05:25:00;;;;;;;16.73;7.18;;;;;;;24.39;61.73;100994.38;5042550;28;20417;-71
2021/06/18 05:27:26;;;;;;;16.38;7.30;;;;;;;24.46;61.51;100995.00;5030762;28;20404;-71
2021/06/18 05:29:52;;;;;;;14.25;7.65;;;;;;;24.53;61.65;100992.22;5048706;28;20040;-71
2021/06/18 05:32:17;;;;;;;12.88;7.03;;;;;;;24.52;61.83;100997.75;5038944;28;20056;-71
2021/06/18 05:34:46;;;;;;;16.13;7.70;;;;;;;24.56;61.65;100999.66;5039090;28;20041;-71
2021/06/18 05:37:13;;;;;;;19.02;8.02;;;;;;;24.82;60.30;101002.66;5031095;28;20063;-71
2021/06/18 05:39:40;;;;;;;10.70;7.85;;;;;;;24.99;59.83;101005.25;5050371;28;20033;-71
2021/06/18 05:42:06;;;;;;;15.13;9.07;;;;;;;25.09;59.89;101001.91;5049821;28;20029;-71
2021/06/18 05:44:31;;;;;;;13.15;7.88;;;;;;;25.24;59.72;101015.34;5046264;28;20052;-71
2021/06/18 05:46:57;;;;;;;12.60;7.35;;;;;;;25.48;59.29;101005.25;5023650;28;20108;-71
2021/06/18 05:49:23;;;;;;;14.15;7.72;;;;;;;25.79;57.78;101009.00;5045232;28;20456;-71
2021/06/18 05:51:48;;;;;;;16.45;8.13;;;;;;;26.05;56.65;101011.09;5030971;28;20025;-71
2021/06/18 05:54:14;;;;;;;21.30;9.38;;;;;;;25.85;57.39;101020.47;5009951;28;20492;-71
2021/06/18 05:56:40;;;;;;;15.35;8.82;;;;;;;25.56;57.75;101033.22;5046959;28;20794;-71
2021/06/18 05:59:06;;;;;;;16.65;8.02;;;;;;;25.61;57.66;101033.25;5039698;28;20108;-71
2021/06/18 06:01:31;;;;;;;16.77;9.93;;;;;;;25.48;58.38;101042.41;5040585;28;20037;-71
2021/06/18 06:03:57;;;;;;;14.68;8.63;;;;;;;25.57;57.70;101037.47;5030532;28;20045;-71
2021/06/18 06:06:22;;;;;;;18.45;10.15;;;;;;;25.57;57.04;101040.94;5047160;28;20064;-71
2021/06/18 06:08:49;;;;;;;16.63;9.45;;;;;;;25.49;58.17;101048.56;5044858;28;20037;-71
2021/06/18 06:11:15;;;;;;;15.15;8.40;;;;;;;25.67;58.73;101052.69;5049699;28;20439;-71
2021/06/18 06:13:40;;;;;;;17.63;9.40;;;;;;;25.78;57.52;101051.75;5049605;28;20159;-71
2021/06/18 06:16:06;;;;;;;14.07;7.28;;;;;;;26.28;56.60;101049.81;5044975;28;20052;-71
2021/06/18 06:18:31;;;;;;;15.98;8.27;;;;;;;26.67;55.22;101046.88;5048001;28;20204;-71
2021/06/18 06:20:57;;;;;;;23.40;9.38;;;;;;;26.82;54.62;101046.94;5037259;28;20985;-71
2021/06/18 06:23:22;;;;;;;13.85;8.10;;;;;;;27.17;53.82;101034.84;5031635;28;20401;-71
2021/06/18 06:25:48;;;;;;;21.83;10.25;;;;;;;27.42;52.22;101044.78;5028371;28;20447;-71
2021/06/18 06:28:13;;;;;;;14.85;9.23;;;;;;;27.37;52.29;101044.81;5029886;28;20044;-71
2021/06/18 06:30:39;;;;;;;19.05;8.48;;;;;;;27.76;51.54;101055.78;5038966;28;20045;-71
2021/06/18 06:33:05;;;;;;;19.73;10.00;;;;;;;27.85;50.49;101047.25;5047027;28;20043;-72
2021/06/18 06:35:31;;;;;;;47.30;29.45;;;;;;;28.09;50.84;101048.34;5047228;28;20363;-71
2021/06/18 06:37:56;;;;;;;16.08;9.35;;;;;;;27.92;50.61;101051.28;5028353;28;20048;-71
2021/06/18 06:40:23;;;;;;;13.23;8.98;;;;;;;27.98;50.98;101049.41;5027742;28;20029;-71
2021/06/18 06:42:50;;;;;;;13.25;9.13;;;;;;;28.03;50.25;101043.28;5028091;28;20040;-71
2021/06/18 06:45:16;;;;;;;15.68;9.43;;;;;;;27.84;50.88;101042.97;5043788;28;20037;-71
2021/06/18 06:47:41;;;;;;;19.33;7.97;;;;;;;27.75;51.50;101053.38;5031488;28;20052;-71
2021/06/18 06:50:08;;;;;;;15.27;8.02;;;;;;;28.18;50.56;101053.94;5030634;28;20029;-71
2021/06/18 06:52:34;;;;;;;16.50;8.23;;;;;;;28.74;49.53;101050.38;5041323;28;20132;-71
2021/06/18 06:54:59;;;;;;;17.30;9.00;;;;;;;29.22;48.29;101050.75;5043591;28;20124;-71
2021/06/18 06:57:25;;;;;;;17.73;9.27;;;;;;;29.17;47.78;101049.97;5034396;28;20037;-71
2021/06/18 06:59:50;;;;;;;15.65;8.15;;;;;;;28.96;48.96;101049.25;5047137;28;20041;-71
2021/06/18 07:02:16;;;;;;;18.55;9.48;;;;;;;28.82;49.57;101047.16;5036591;28;20064;-71
2021/06/18 07:04:41;;;;;;;17.77;8.80;;;;;;;28.60;50.54;101049.38;5029502;28;20036;-71
2021/06/18 07:07:07;;;;;;;15.50;10.25;;;;;;;28.22;50.50;101049.69;5027106;28;20699;-71
2021/06/18 07:09:38;;;;;;;16.67;9.40;;;;;;;27.85;51.68;101042.72;5047632;28;20044;-71
2021/06/18 07:12:05;;;;;;;12.40;7.00;;;;;;;27.58;53.06;101040.31;5042910;28;20043;-71
2021/06/18 07:14:31;;;;;;;15.93;10.05;;;;;;;27.52;52.21;101042.16;5024940;28;20502;-71
2021/06/18 07:16:56;;;;;;;18.50;9.40;;;;;;;27.15;53.35;101040.44;5040809;28;20048;-71
2021/06/18 07:19:22;;;;;;;13.23;8.55;;;;;;;27.09;54.33;101048.69;5036922;28;20024;-71
2021/06/18 07:21:48;;;;;;;14.82;10.75;;;;;;;27.09;54.37;101038.81;5029347;28;20029;-71
2021/06/18 07:24:14;;;;;;;21.73;9.93;;;;;;;27.01;55.02;101031.31;5042874;28;20025;-71
2021/06/18 07:26:39;;;;;;;18.05;11.80;;;;;;;26.63;55.44;101029.84;5032255;28;20037;-71
2021/06/18 07:29:05;;;;;;;22.48;10.48;;;;;;;26.64;55.68;101028.78;5027881;28;20025;-71
2021/06/18 07:31:30;;;;;;;21.83;9.48;;;;;;;26.66;57.24;101034.66;5041376;28;20044;-71
2021/06/18 07:33:56;;;;;;;20.48;11.02;;;;;;;26.59;55.82;101026.84;5042376;28;20040;-71
2021/06/18 07:36:21;;;;;;;15.95;10.63;;;;;;;26.54;56.32;101019.66;5046001;28;20035;-71
2021/06/18 07:38:48;;;;;;;15.50;9.95;;;;;;;26.44;57.05;101013.47;5044523;28;20036;-71
2021/06/18 07:41:13;;;;;;;29.50;11.68;;;;;;;26.27;57.40;101005.66;5042010;28;20052;-71
2021/06/18 07:43:39;;;;;;;19.02;11.43;;;;;;;26.02;57.75;101009.75;5040975;28;20033;-71
2021/06/18 07:46:04;;;;;;;16.58;10.30;;;;;;;26.09;58.31;101012.19;5028860;28;20385;-71
2021/06/18 07:48:30;;;;;;;26.30;11.10;;;;;;;26.10;58.18;101016.44;5033789;28;20063;-71
2021/06/18 07:50:55;;;;;;;14.93;6.60;;;;;;;26.18;58.03;101022.09;5038393;28;20135;-71
2021/06/18 07:53:21;;;;;;;19.55;10.57;;;;;;;26.08;57.72;101014.03;5033085;28;20036;-71
2021/06/18 07:55:48;;;;;;;15.27;8.20;;;;;;;26.10;57.85;101019.91;5023662;28;20029;-71
2021/06/18 07:58:14;;;;;;;14.10;8.38;;;;;;;26.06;57.96;101013.50;5025684;28;20092;-71
2021/06/18 08:00:39;;;;;;;15.63;10.80;;;;;;;25.97;58.56;101017.66;5045783;28;20146;-71
2021/06/18 08:03:06;;;;;;;13.10;8.23;;;;;;;26.01;58.76;101026.72;5040786;28;20044;-71
2021/06/18 08:05:32;;;;;;;16.38;8.57;;;;;;;26.12;58.73;101038.25;5039641;28;20486;-71
2021/06/18 08:07:57;;;;;;;13.02;7.07;;;;;;;26.16;58.85;101028.72;5046988;28;20090;-71
2021/06/18 08:10:23;;;;;;;13.80;8.80;;;;;;;26.26;58.86;101036.78;5046770;28;20075;-71
2021/06/18 08:12:49;;;;;;;18.38;7.55;;;;;;;26.26;58.66;101028.78;5031926;28;20504;-71
2021/06/18 08:15:16;;;;;;;16.70;7.47;;;;;;;26.27;58.56;101029.59;5041193;28;20037;-71
2021/06/18 08:17:42;;;;;;;15.55;7.95;;;;;;;26.36;58.51;101030.72;5043543;28;20087;-71
2021/06/18 08:20:09;;;;;;;8.85;5.63;;;;;;;26.48;58.05;101017.22;5043312;28;20056;-71
2021/06/18 08:22:35;;;;;;;9.07;6.60;;;;;;;26.53;58.03;101015.41;5041190;28;20462;-71
2021/06/18 08:25:02;;;;;;;9.50;6.35;;;;;;;26.56;57.95;101022.88;5041894;28;20033;-71
2021/06/18 08:27:28;;;;;;;9.35;6.20;;;;;;;26.79;57.54;101020.88;5028366;28;20488;-71
2021/06/18 08:29:53;;;;;;;10.77;6.38;;;;;;;26.99;57.51;101017.50;5022315;28;20043;-71
2021/06/18 08:32:19;;;;;;;13.02;7.05;;;;;;;27.23;57.11;101022.38;5033043;28;20048;-71
2021/06/18 08:34:45;;;;;;;10.60;7.35;;;;;;;27.44;55.75;101020.56;5027241;28;20731;-71
2021/06/18 08:37:10;;;;;;;15.82;10.05;;;;;;;27.44;55.28;101018.69;5038505;28;20041;-71
2021/06/18 08:39:36;;;;;;;14.48;7.63;;;;;;;27.53;55.29;101014.47;5045002;28;20112;-71
2021/06/18 08:42:03;;;;;;;14.90;9.57;;;;;;;27.76;55.34;101009.69;5040632;28;20124;-71
2021/06/18 08:44:28;;;;;;;17.60;9.93;;;;;;;27.88;54.74;101007.56;5033616;28;20079;-71
2021/06/18 08:46:54;;;;;;;13.85;7.93;;;;;;;27.90;54.80;101015.31;5027192;28;20533;-71
2021/06/18 08:49:21;;;;;;;12.90;7.88;;;;;;;27.88;54.99;101004.91;5034410;28;20025;-71
2021/06/18 08:51:47;;;;;;;13.48;7.82;;;;;;;27.91;54.72;101009.72;5045162;28;20501;-71
2021/06/18 08:54:12;;;;;;;10.93;6.40;;;;;;;27.89;54.95;101000.41;5036511;28;20043;-71
2021/06/18 08:56:39;;;;;;;17.08;10.10;;;;;;;28.02;52.54;101009.72;5042950;28;20037;-71
2021/06/18 08:59:04;;;;;;;13.73;7.85;;;;;;;27.94;53.05;101003.84;5044793;28;20083;-71
2021/06/18 09:01:29;;;;;;;12.45;8.43;;;;;;;28.06;52.79;101008.09;5044297;28;20490;-71
2021/06/18 09:04:01;;;;;;;11.60;6.95;;;;;;;28.22;54.04;101003.53;5048004;28;20040;-71
2021/06/18 09:06:42;;;;;;;17.23;9.90;;;;;;;28.67;50.77;101005.34;5028437;28;20036;-71
2021/06/18 09:09:27;;;;;;;15.38;7.90;;;;;;;28.57;51.61;101013.34;5047048;28;20422;-71
2021/06/18 09:11:52;;;;;;;13.55;7.47;;;;;;;28.60;51.00;101007.50;5030441;28;20473;-71
2021/06/18 09:14:22;;;;;;;11.45;7.03;;;;;;;28.63;51.22;101004.28;5049009;28;20060;-71
2021/06/18 09:17:27;;;;;;;11.88;6.95;;;;;;;29.04;51.66;101001.41;5025108;28;20073;-71
2021/06/18 09:19:56;;;;;;;14.43;8.50;;;;;;;29.45;48.63;100997.75;5021794;28;20430;-71
2021/06/18 09:22:35;;;;;;;16.60;8.32;;;;;;;29.76;49.11;101001.00;5011747;28;20037;-71
2021/06/18 09:25:05;;;;;;;16.73;9.25;;;;;;;30.08;48.35;100997.78;5047537;28;20036;-72
2021/06/18 09:27:43;;;;;;;16.13;9.30;;;;;;;30.50;46.36;100998.16;5047789;28;20045;-72
2021/06/18 09:30:22;;;;;;;17.60;8.35;;;;;;;30.85;45.57;100988.91;5047240;28;20378;-72
2021/06/18 09:33:11;;;;;;;20.02;9.05;;;;;;;30.76;45.13;100987.94;5033678;28;20036;-72
2021/06/18 09:35:56;;;;;;;18.80;9.02;;;;;;;30.89;44.48;100983.75;5039565;28;20041;-72
2021/06/18 09:38:38;;;;;;;15.30;6.55;;;;;;;31.00;46.41;100989.78;5043978;28;20071;-72
2021/06/18 09:41:04;;;;;;;15.30;8.95;;;;;;;31.01;43.95;100975.34;5029758;28;20396;-72
2021/06/18 09:43:43;;;;;;;12.27;7.18;;;;;;;31.17;44.19;100976.69;5048624;28;20033;-72
2021/06/18 09:46:08;;;;;;;12.68;7.28;;;;;;;31.40;42.94;100974.19;5046373;28;20534;-72
2021/06/18 09:48:34;;;;;;;13.45;7.53;;;;;;;31.41;43.37;100968.56;5040404;28;20037;-72
2021/06/18 09:51:01;;;;;;;13.60;6.03;;;;;;;31.64;43.53;100974.09;5039748;28;20041;-72
2021/06/18 09:53:28;;;;;;;11.30;5.30;;;;;;;31.87;40.81;100969.69;5031635;28;20412;-72
2021/06/18 09:56:08;;;;;;;15.57;6.18;;;;;;;31.96;41.52;100964.44;5030190;28;20102;-72
2021/06/18 09:58:35;;;;;;;12.80;3.90;;;;;;;32.09;38.14;100962.91;5046298;28;20037;-72
2021/06/18 10:01:24;;;;;;;8.63;3.78;;;;;;;32.29;35.84;100951.00;5035957;28;20098;-72
2021/06/18 10:04:16;;;;;;;8.68;4.00;;;;;;;32.42;36.89;100952.88;5046104;28;20048;-73
2021/06/18 10:06:42;;;;;;;9.93;4.05;;;;;;;32.55;36.51;100949.38;5034903;28;20046;-72
2021/06/18 10:09:10;;;;;;;11.98;4.40;;;;;;;32.40;34.80;100949.69;5027085;28;20037;-72
2021/06/18 10:11:39;;;;;;;10.60;4.30;;;;;;;32.58;37.08;100934.56;5032054;28;20292;-72
2021/06/18 10:14:05;;;;;;;10.35;4.95;;;;;;;32.80;36.77;100933.06;5037725;28;20042;-72
2021/06/18 10:16:30;;;;;;;9.80;4.22;;;;;;;32.97;35.84;100936.66;5044732;28;20049;-72
2021/06/18 10:18:57;;;;;;;7.68;3.50;;;;;;;33.02;37.04;100945.69;5028998;28;20120;-72
2021/06/18 10:21:24;;;;;;;12.38;4.43;;;;;;;33.27;35.38;100947.81;5028630;28;20052;-73
2021/06/18 10:23:54;;;;;;;10.95;3.60;;;;;;;33.02;34.92;100954.56;5042341;28;20116;-72
2021/06/18 10:26:21;;;;;;;11.25;3.85;;;;;;;33.14;33.80;100944.06;5020144;28;20475;-73
2021/06/18 10:29:27;;;;;;;7.05;3.88;;;;;;;33.34;35.05;100953.53;5044338;28;20036;-73
2021/06/18 10:31:53;;;;;;;10.23;4.40;;;;;;;33.53;35.37;100947.97;5027188;28;20413;-72
2021/06/18 10:34:19;;;;;;;12.40;4.18;;;;;;;33.49;36.21;100941.63;5038436;28;20025;-73
2021/06/18 10:36:44;;;;;;;13.65;4.25;;;;;;;33.69;36.66;100936.84;5044480;28;20044;-73
2021/06/18 10:39:13;;;;;;;7.57;4.00;;;;;;;33.87;35.15;100941.22;5029745;28;20675;-73
2021/06/18 10:41:58;;;;;;;15.35;5.47;;;;;;;33.79;35.56;100938.47;5049500;28;20036;-72
2021/06/18 10:44:39;;;;;;;9.75;3.70;;;;;;;34.03;36.47;100938.09;5025337;28;20040;-73
2021/06/18 10:47:05;;;;;;;10.73;4.68;;;;;;;34.16;34.44;100937.22;5045974;28;20041;-72
2021/06/18 10:49:38;;;;;;;12.13;3.97;;;;;;;33.98;34.83;100932.84;5029541;28;20080;-72
2021/06/18 10:52:20;;;;;;;8.95;3.53;;;;;;;34.42;32.79;100929.19;5035002;28;20033;-73
2021/06/18 10:54:55;;;;;;;9.95;4.00;;;;;;;34.20;34.03;100932.78;5029605;28;20481;-72
2021/06/18 10:57:25;;;;;;;14.90;4.43;;;;;;;33.67;34.57;100937.16;5047540;28;20095;-73
2021/06/18 10:59:52;;;;;;;10.98;4.80;;;;;;;33.40;35.72;100937.28;5044047;28;20036;-72
2021/06/18 11:02:21;;;;;;;12.50;4.57;;;;;;;33.61;33.90;100933.00;5040325;28;20026;-72
2021/06/18 11:04:55;;;;;;;14.82;4.10;;;;;;;33.39;35.06;100938.41;5047507;28;20033;-72
2021/06/18 11:07:31;;;;;;;7.60;3.50;;;;;;;33.11;34.14;100938.53;5027232;28;20448;-72
2021/06/18 11:09:58;;;;;;;8.77;3.88;;;;;;;33.10;34.75;100934.22;5041264;28;20044;-72
2021/06/18 11:12:24;;;;;;;8.90;4.10;;;;;;;32.97;37.42;100943.91;5041252;28;20040;-72
2021/06/18 11:14:56;;;;;;;11.32;4.68;;;;;;;32.74;37.81;100935.84;5029077;28;20020;-73
2021/06/18 11:17:40;;;;;;;16.88;5.28;;;;;;;32.68;38.06;100928.19;5029663;28;20095;-72
2021/06/18 11:20:09;;;;;;;9.38;4.82;;;;;;;32.86;38.31;100937.19;5030127;28;20714;-72
2021/06/18 11:22:54;;;;;;;10.13;4.32;;;;;;;32.79;37.48;100934.91;5032486;28;20402;-72
2021/06/18 11:28:19;;;;;;;9.80;4.00;;;;;;;33.22;37.12;100921.06;5051656;28;20051;-73